sensor_id;sensor_type;location;lat;lon;timestamp;temperature;humidity
6956;DHT22;50345;51.136;16.886;2023-05-07T00:00:36;10.20;99.90
6956;DHT22;50345;51.136;16.886;2023-05-07T00:03:03;10.20;99.90
6956;DHT22;50345;51.136;16.886;2023-05-07T00:05:28;10.20;99.90
6956;DHT22;50345;51.136;16.886;2023-05-07T00:07:54;10.20;99.90
6956;DHT22;50345;51.136;16.886;2023-05-07T00:10:19;10.20;99.90
6956;DHT22;50345;51.136;16.886;2023-05-07T00:12:45;10.20;99.90
6956;DHT22;50345;51.136;16.886;2023-05-07T00:15:11;10.20;99.90
6956;DHT22;50345;51.136;16.886;2023-05-07T00:17:37;10.20;99.90
6956;DHT22;50345;51.136;16.886;2023-05-07T00:20:03;10.20;99.90
6956;DHT22;50345;51.136;16.886;2023-05-07T00:22:30;10.20;99.90
6956;DHT22;50345;51.136;16.886;2023-05-07T00:24:56;10.20;99.90
6956;DHT22;50345;51.136;16.886;2023-05-07T00:27:22;10.20;99.90
6956;DHT22;50345;51.136;16.886;2023-05-07T00:29:48;10.20;99.90
6956;DHT22;50345;51.136;16.886;2023-05-07T00:32:13;10.20;99.90
6956;DHT22;50345;51.136;16.886;2023-05-07T00:34:40;10.20;99.90
6956;DHT22;50345;51.136;16.886;2023-05-07T00:37:05;10.20;99.90
6956;DHT22;50345;51.136;16.886;2023-05-07T00:39:33;10.20;99.90
6956;DHT22;50345;51.136;16.886;2023-05-07T00:41:59;10.20;99.90
6956;DHT22;50345;51.136;16.886;2023-05-07T00:44:26;10.20;99.90
6956;DHT22;50345;51.136;16.886;2023-05-07T00:46:52;10.20;99.90
6956;DHT22;50345;51.136;16.886;2023-05-07T00:49:19;10.20;99.90
6956;DHT22;50345;51.136;16.886;2023-05-07T00:51:45;10.20;99.90
6956;DHT22;50345;51.136;16.886;2023-05-07T00:54:11;10.20;99.90
6956;DHT22;50345;51.136;16.886;2023-05-07T00:56:37;10.20;99.90
6956;DHT22;50345;51.136;16.886;2023-05-07T00:59:04;10.20;99.90
6956;DHT22;50345;51.136;16.886;2023-05-07T01:01:31;10.20;99.90
6956;DHT22;50345;51.136;16.886;2023-05-07T01:03:57;10.20;99.90
6956;DHT22;50345;51.136;16.886;2023-05-07T01:06:23;10.20;99.90
6956;DHT22;50345;51.136;16.886;2023-05-07T01:08:51;10.20;99.90
6956;DHT22;50345;51.136;16.886;2023-05-07T01:11:18;10.10;99.90
6956;DHT22;50345;51.136;16.886;2023-05-07T01:13:46;10.10;99.90
6956;DHT22;50345;51.136;16.886;2023-05-07T01:16:12;10.20;99.90
6956;DHT22;50345;51.136;16.886;2023-05-07T01:18:38;10.20;99.90
6956;DHT22;50345;51.136;16.886;2023-05-07T01:21:04;10.10;99.90
6956;DHT22;50345;51.136;16.886;2023-05-07T01:23:30;10.20;99.90
6956;DHT22;50345;51.136;16.886;2023-05-07T01:25:56;10.20;99.90
6956;DHT22;50345;51.136;16.886;2023-05-07T01:28:22;10.20;99.90
6956;DHT22;50345;51.136;16.886;2023-05-07T01:30:54;10.20;99.90
6956;DHT22;50345;51.136;16.886;2023-05-07T01:33:21;10.20;99.90
6956;DHT22;50345;51.136;16.886;2023-05-07T01:35:51;10.20;99.90
6956;DHT22;50345;51.136;16.886;2023-05-07T01:38:18;10.20;99.90
6956;DHT22;50345;51.136;16.886;2023-05-07T01:40:44;10.10;99.90
6956;DHT22;50345;51.136;16.886;2023-05-07T01:43:10;10.10;99.90
6956;DHT22;50345;51.136;16.886;2023-05-07T01:45:36;10.10;99.90
6956;DHT22;50345;51.136;16.886;2023-05-07T01:48:02;10.10;99.90
6956;DHT22;50345;51.136;16.886;2023-05-07T01:50:29;10.10;99.90
6956;DHT22;50345;51.136;16.886;2023-05-07T01:52:55;10.10;99.90
6956;DHT22;50345;51.136;16.886;2023-05-07T01:55:21;10.10;99.90
6956;DHT22;50345;51.136;16.886;2023-05-07T01:57:47;10.10;99.90
6956;DHT22;50345;51.136;16.886;2023-05-07T02:00:12;10.10;99.90
6956;DHT22;50345;51.136;16.886;2023-05-07T02:02:38;10.10;99.90
6956;DHT22;50345;51.136;16.886;2023-05-07T02:05:04;10.10;99.90
6956;DHT22;50345;51.136;16.886;2023-05-07T02:07:30;10.10;99.90
6956;DHT22;50345;51.136;16.886;2023-05-07T02:09:55;10.10;99.90
6956;DHT22;50345;51.136;16.886;2023-05-07T02:12:22;10.10;99.90
6956;DHT22;50345;51.136;16.886;2023-05-07T02:14:48;10.10;99.90
6956;DHT22;50345;51.136;16.886;2023-05-07T02:17:13;10.10;99.90
6956;DHT22;50345;51.136;16.886;2023-05-07T02:19:39;10.00;99.90
6956;DHT22;50345;51.136;16.886;2023-05-07T02:22:05;10.00;99.90
6956;DHT22;50345;51.136;16.886;2023-05-07T02:24:30;10.00;99.90
6956;DHT22;50345;51.136;16.886;2023-05-07T02:26:56;10.00;99.90
6956;DHT22;50345;51.136;16.886;2023-05-07T02:29:22;10.00;99.90
6956;DHT22;50345;51.136;16.886;2023-05-07T02:31:47;10.00;99.90
6956;DHT22;50345;51.136;16.886;2023-05-07T02:34:18;10.00;99.90
6956;DHT22;50345;51.136;16.886;2023-05-07T02:36:44;10.00;99.90
6956;DHT22;50345;51.136;16.886;2023-05-07T02:39:11;10.10;99.90
6956;DHT22;50345;51.136;16.886;2023-05-07T02:41:37;10.10;99.90
6956;DHT22;50345;51.136;16.886;2023-05-07T02:44:02;10.10;99.90
6956;DHT22;50345;51.136;16.886;2023-05-07T02:46:28;10.10;99.90
6956;DHT22;50345;51.136;16.886;2023-05-07T02:48:53;10.00;99.90
6956;DHT22;50345;51.136;16.886;2023-05-07T02:51:21;10.00;99.90
6956;DHT22;50345;51.136;16.886;2023-05-07T02:53:47;10.00;99.90
6956;DHT22;50345;51.136;16.886;2023-05-07T02:56:12;10.00;99.90
6956;DHT22;50345;51.136;16.886;2023-05-07T02:58:38;10.00;99.90
6956;DHT22;50345;51.136;16.886;2023-05-07T03:01:10;10.00;99.90
6956;DHT22;50345;51.136;16.886;2023-05-07T03:03:35;10.00;99.90
6956;DHT22;50345;51.136;16.886;2023-05-07T03:06:01;10.00;99.90
6956;DHT22;50345;51.136;16.886;2023-05-07T03:08:28;9.90;99.90
6956;DHT22;50345;51.136;16.886;2023-05-07T03:10:53;9.90;99.90
6956;DHT22;50345;51.136;16.886;2023-05-07T03:13:19;9.90;99.90
6956;DHT22;50345;51.136;16.886;2023-05-07T03:15:45;9.90;99.90
6956;DHT22;50345;51.136;16.886;2023-05-07T03:18:10;9.90;99.90
6956;DHT22;50345;51.136;16.886;2023-05-07T03:20:36;9.90;99.90
6956;DHT22;50345;51.136;16.886;2023-05-07T03:23:02;9.90;99.90
6956;DHT22;50345;51.136;16.886;2023-05-07T03:25:28;9.90;99.90
6956;DHT22;50345;51.136;16.886;2023-05-07T03:27:55;9.90;99.90
6956;DHT22;50345;51.136;16.886;2023-05-07T03:30:21;9.90;99.90
6956;DHT22;50345;51.136;16.886;2023-05-07T03:32:46;9.90;99.90
6956;DHT22;50345;51.136;16.886;2023-05-07T03:35:12;9.90;99.90
6956;DHT22;50345;51.136;16.886;2023-05-07T03:37:38;9.90;99.90
6956;DHT22;50345;51.136;16.886;2023-05-07T03:40:05;9.90;99.90
6956;DHT22;50345;51.136;16.886;2023-05-07T03:42:31;9.90;99.90
6956;DHT22;50345;51.136;16.886;2023-05-07T03:44:56;9.90;99.90
6956;DHT22;50345;51.136;16.886;2023-05-07T03:47:22;9.90;99.90
6956;DHT22;50345;51.136;16.886;2023-05-07T03:49:47;9.90;99.90
6956;DHT22;50345;51.136;16.886;2023-05-07T03:52:14;9.90;99.90
6956;DHT22;50345;51.136;16.886;2023-05-07T03:54:40;10.00;99.90
6956;DHT22;50345;51.136;16.886;2023-05-07T03:57:06;10.00;99.90
6956;DHT22;50345;51.136;16.886;2023-05-07T03:59:31;9.90;99.90
6956;DHT22;50345;51.136;16.886;2023-05-07T04:01:57;9.90;99.90
6956;DHT22;50345;51.136;16.886;2023-05-07T04:04:23;9.90;99.90
6956;DHT22;50345;51.136;16.886;2023-05-07T04:06:48;10.00;99.90
6956;DHT22;50345;51.136;16.886;2023-05-07T04:09:14;9.90;99.90
6956;DHT22;50345;51.136;16.886;2023-05-07T04:11:39;9.90;99.90
6956;DHT22;50345;51.136;16.886;2023-05-07T04:14:05;9.90;99.90
6956;DHT22;50345;51.136;16.886;2023-05-07T04:16:31;9.90;99.90
6956;DHT22;50345;51.136;16.886;2023-05-07T04:18:57;9.90;99.90
6956;DHT22;50345;51.136;16.886;2023-05-07T04:21:22;9.90;99.90
6956;DHT22;50345;51.136;16.886;2023-05-07T04:23:48;9.90;99.90
6956;DHT22;50345;51.136;16.886;2023-05-07T04:26:14;9.90;99.90
6956;DHT22;50345;51.136;16.886;2023-05-07T04:28:41;9.90;99.90
6956;DHT22;50345;51.136;16.886;2023-05-07T04:31:06;9.80;99.90
6956;DHT22;50345;51.136;16.886;2023-05-07T04:33:32;9.80;99.90
6956;DHT22;50345;51.136;16.886;2023-05-07T04:36:01;9.80;99.90
6956;DHT22;50345;51.136;16.886;2023-05-07T04:38:29;9.70;99.90
6956;DHT22;50345;51.136;16.886;2023-05-07T04:40:55;9.70;99.90
6956;DHT22;50345;51.136;16.886;2023-05-07T04:43:21;9.70;99.90
6956;DHT22;50345;51.136;16.886;2023-05-07T04:45:47;9.70;99.90
6956;DHT22;50345;51.136;16.886;2023-05-07T04:48:12;9.80;99.90
6956;DHT22;50345;51.136;16.886;2023-05-07T04:50:40;9.80;99.90
6956;DHT22;50345;51.136;16.886;2023-05-07T04:53:06;9.80;99.90
6956;DHT22;50345;51.136;16.886;2023-05-07T04:55:31;9.90;99.90
6956;DHT22;50345;51.136;16.886;2023-05-07T04:57:57;10.00;99.90
6956;DHT22;50345;51.136;16.886;2023-05-07T05:00:22;10.10;99.90
6956;DHT22;50345;51.136;16.886;2023-05-07T05:02:48;10.30;99.90
6956;DHT22;50345;51.136;16.886;2023-05-07T05:05:14;10.40;99.90
6956;DHT22;50345;51.136;16.886;2023-05-07T05:07:39;10.50;99.90
6956;DHT22;50345;51.136;16.886;2023-05-07T05:10:05;10.70;99.90
6956;DHT22;50345;51.136;16.886;2023-05-07T05:12:31;10.70;99.90
6956;DHT22;50345;51.136;16.886;2023-05-07T05:14:56;10.70;99.90
6956;DHT22;50345;51.136;16.886;2023-05-07T05:17:22;10.80;99.90
6956;DHT22;50345;51.136;16.886;2023-05-07T05:19:48;10.80;99.90
6956;DHT22;50345;51.136;16.886;2023-05-07T05:22:13;10.80;99.90
6956;DHT22;50345;51.136;16.886;2023-05-07T05:24:39;10.80;99.90
6956;DHT22;50345;51.136;16.886;2023-05-07T05:27:05;10.80;99.90
6956;DHT22;50345;51.136;16.886;2023-05-07T05:29:30;10.80;99.90
6956;DHT22;50345;51.136;16.886;2023-05-07T05:31:57;10.80;99.90
6956;DHT22;50345;51.136;16.886;2023-05-07T05:34:22;10.80;99.90
6956;DHT22;50345;51.136;16.886;2023-05-07T05:36:48;10.80;99.90
6956;DHT22;50345;51.136;16.886;2023-05-07T05:39:14;10.80;99.90
6956;DHT22;50345;51.136;16.886;2023-05-07T05:41:39;10.90;99.90
6956;DHT22;50345;51.136;16.886;2023-05-07T05:44:05;11.00;99.90
6956;DHT22;50345;51.136;16.886;2023-05-07T05:46:31;10.90;99.90
6956;DHT22;50345;51.136;16.886;2023-05-07T05:48:56;11.10;99.90
6956;DHT22;50345;51.136;16.886;2023-05-07T05:51:22;11.00;99.90
6956;DHT22;50345;51.136;16.886;2023-05-07T05:53:48;11.10;99.90
6956;DHT22;50345;51.136;16.886;2023-05-07T05:56:14;11.10;99.90
6956;DHT22;50345;51.136;16.886;2023-05-07T05:58:40;11.20;99.90
6956;DHT22;50345;51.136;16.886;2023-05-07T06:01:06;11.20;99.90
6956;DHT22;50345;51.136;16.886;2023-05-07T06:03:32;11.30;99.90
6956;DHT22;50345;51.136;16.886;2023-05-07T06:05:58;11.40;99.90
6956;DHT22;50345;51.136;16.886;2023-05-07T06:08:23;11.40;99.90
6956;DHT22;50345;51.136;16.886;2023-05-07T06:10:49;11.50;99.90
6956;DHT22;50345;51.136;16.886;2023-05-07T06:13:15;11.60;99.90
6956;DHT22;50345;51.136;16.886;2023-05-07T06:15:40;11.70;99.90
6956;DHT22;50345;51.136;16.886;2023-05-07T06:18:06;11.80;99.90
6956;DHT22;50345;51.136;16.886;2023-05-07T06:20:32;11.80;99.90
6956;DHT22;50345;51.136;16.886;2023-05-07T06:22:57;11.80;99.90
6956;DHT22;50345;51.136;16.886;2023-05-07T06:25:23;11.90;99.90
6956;DHT22;50345;51.136;16.886;2023-05-07T06:27:48;11.90;99.90
6956;DHT22;50345;51.136;16.886;2023-05-07T06:30:14;11.90;99.90
6956;DHT22;50345;51.136;16.886;2023-05-07T06:32:40;12.10;99.90
6956;DHT22;50345;51.136;16.886;2023-05-07T06:35:06;12.10;99.90
6956;DHT22;50345;51.136;16.886;2023-05-07T06:37:32;12.10;99.90
6956;DHT22;50345;51.136;16.886;2023-05-07T06:39:57;12.10;99.90
6956;DHT22;50345;51.136;16.886;2023-05-07T06:42:23;12.00;99.90
6956;DHT22;50345;51.136;16.886;2023-05-07T06:44:48;11.90;99.90
6956;DHT22;50345;51.136;16.886;2023-05-07T06:47:14;11.90;99.90
6956;DHT22;50345;51.136;16.886;2023-05-07T06:49:40;11.80;99.90
6956;DHT22;50345;51.136;16.886;2023-05-07T06:52:05;11.70;99.90
6956;DHT22;50345;51.136;16.886;2023-05-07T06:54:31;11.60;99.90
6956;DHT22;50345;51.136;16.886;2023-05-07T06:56:56;11.60;99.90
6956;DHT22;50345;51.136;16.886;2023-05-07T06:59:23;11.50;99.90
6956;DHT22;50345;51.136;16.886;2023-05-07T07:01:49;11.40;99.90
6956;DHT22;50345;51.136;16.886;2023-05-07T07:04:14;11.40;99.90
6956;DHT22;50345;51.136;16.886;2023-05-07T07:06:40;11.30;99.90
6956;DHT22;50345;51.136;16.886;2023-05-07T07:09:05;11.30;99.90
6956;DHT22;50345;51.136;16.886;2023-05-07T07:11:31;11.30;99.90
6956;DHT22;50345;51.136;16.886;2023-05-07T07:13:56;11.20;99.90
6956;DHT22;50345;51.136;16.886;2023-05-07T07:16:22;11.20;99.90
6956;DHT22;50345;51.136;16.886;2023-05-07T07:18:48;11.20;99.90
6956;DHT22;50345;51.136;16.886;2023-05-07T07:21:13;11.30;99.90
6956;DHT22;50345;51.136;16.886;2023-05-07T07:23:39;11.60;99.90
6956;DHT22;50345;51.136;16.886;2023-05-07T07:26:05;11.60;99.90
6956;DHT22;50345;51.136;16.886;2023-05-07T07:28:32;11.70;99.90
6956;DHT22;50345;51.136;16.886;2023-05-07T07:30:57;11.80;99.90
6956;DHT22;50345;51.136;16.886;2023-05-07T07:33:23;11.90;99.90
6956;DHT22;50345;51.136;16.886;2023-05-07T07:35:48;11.90;99.90
6956;DHT22;50345;51.136;16.886;2023-05-07T07:38:14;12.10;99.90
6956;DHT22;50345;51.136;16.886;2023-05-07T07:40:40;12.20;99.90
6956;DHT22;50345;51.136;16.886;2023-05-07T07:43:05;12.30;99.90
6956;DHT22;50345;51.136;16.886;2023-05-07T07:45:31;12.40;99.90
6956;DHT22;50345;51.136;16.886;2023-05-07T07:47:57;12.60;99.90
6956;DHT22;50345;51.136;16.886;2023-05-07T07:50:22;12.70;99.90
6956;DHT22;50345;51.136;16.886;2023-05-07T07:52:48;12.80;99.90
6956;DHT22;50345;51.136;16.886;2023-05-07T07:55:14;12.90;99.90
6956;DHT22;50345;51.136;16.886;2023-05-07T07:57:43;13.00;99.90
6956;DHT22;50345;51.136;16.886;2023-05-07T08:00:09;13.10;99.90
6956;DHT22;50345;51.136;16.886;2023-05-07T08:02:34;13.20;99.90
6956;DHT22;50345;51.136;16.886;2023-05-07T08:05:00;13.10;99.90
6956;DHT22;50345;51.136;16.886;2023-05-07T08:07:26;13.10;99.90
6956;DHT22;50345;51.136;16.886;2023-05-07T08:09:51;13.00;99.90
6956;DHT22;50345;51.136;16.886;2023-05-07T08:12:17;12.80;99.90
6956;DHT22;50345;51.136;16.886;2023-05-07T08:14:43;12.70;99.90
6956;DHT22;50345;51.136;16.886;2023-05-07T08:17:09;12.50;99.90
6956;DHT22;50345;51.136;16.886;2023-05-07T08:19:35;12.50;99.90
6956;DHT22;50345;51.136;16.886;2023-05-07T08:22:02;12.40;99.90
6956;DHT22;50345;51.136;16.886;2023-05-07T08:24:27;12.30;99.90
6956;DHT22;50345;51.136;16.886;2023-05-07T08:26:53;12.20;99.90
6956;DHT22;50345;51.136;16.886;2023-05-07T08:29:18;12.10;99.90
6956;DHT22;50345;51.136;16.886;2023-05-07T08:31:44;12.10;99.90
6956;DHT22;50345;51.136;16.886;2023-05-07T08:34:09;12.10;99.90
6956;DHT22;50345;51.136;16.886;2023-05-07T08:36:35;11.90;99.90
6956;DHT22;50345;51.136;16.886;2023-05-07T08:39:00;11.90;99.90
6956;DHT22;50345;51.136;16.886;2023-05-07T08:41:26;11.80;99.90
6956;DHT22;50345;51.136;16.886;2023-05-07T08:43:52;11.90;99.90
6956;DHT22;50345;51.136;16.886;2023-05-07T08:46:20;12.10;99.90
6956;DHT22;50345;51.136;16.886;2023-05-07T08:48:48;12.20;99.90
6956;DHT22;50345;51.136;16.886;2023-05-07T08:51:17;12.30;99.90
6956;DHT22;50345;51.136;16.886;2023-05-07T08:53:43;12.30;99.90
6956;DHT22;50345;51.136;16.886;2023-05-07T08:56:09;12.30;99.90
6956;DHT22;50345;51.136;16.886;2023-05-07T08:58:35;12.30;99.90
6956;DHT22;50345;51.136;16.886;2023-05-07T09:01:07;12.20;99.90
6956;DHT22;50345;51.136;16.886;2023-05-07T09:03:33;12.10;99.90
6956;DHT22;50345;51.136;16.886;2023-05-07T09:05:59;12.00;99.90
6956;DHT22;50345;51.136;16.886;2023-05-07T09:08:26;12.00;99.90
6956;DHT22;50345;51.136;16.886;2023-05-07T09:10:52;11.90;99.90
6956;DHT22;50345;51.136;16.886;2023-05-07T09:13:18;11.90;99.90
6956;DHT22;50345;51.136;16.886;2023-05-07T09:15:44;11.80;99.90
6956;DHT22;50345;51.136;16.886;2023-05-07T09:18:10;11.70;99.90
6956;DHT22;50345;51.136;16.886;2023-05-07T09:20:39;11.70;99.90
6956;DHT22;50345;51.136;16.886;2023-05-07T09:23:06;11.70;99.90
6956;DHT22;50345;51.136;16.886;2023-05-07T09:25:33;11.70;99.90
6956;DHT22;50345;51.136;16.886;2023-05-07T09:28:00;11.80;99.90
6956;DHT22;50345;51.136;16.886;2023-05-07T09:30:32;11.90;99.90
6956;DHT22;50345;51.136;16.886;2023-05-07T09:32:59;12.10;99.90
6956;DHT22;50345;51.136;16.886;2023-05-07T09:35:26;12.70;99.90
6956;DHT22;50345;51.136;16.886;2023-05-07T09:37:58;12.70;99.90
6956;DHT22;50345;51.136;16.886;2023-05-07T09:40:29;12.90;99.90
6956;DHT22;50345;51.136;16.886;2023-05-07T09:42:55;13.00;99.90
6956;DHT22;50345;51.136;16.886;2023-05-07T09:45:28;13.00;99.90
6956;DHT22;50345;51.136;16.886;2023-05-07T09:47:55;12.90;99.90
6956;DHT22;50345;51.136;16.886;2023-05-07T09:50:27;12.90;99.90
6956;DHT22;50345;51.136;16.886;2023-05-07T09:52:55;12.80;99.90
6956;DHT22;50345;51.136;16.886;2023-05-07T09:55:21;12.80;99.90
6956;DHT22;50345;51.136;16.886;2023-05-07T09:57:50;12.90;99.90
6956;DHT22;50345;51.136;16.886;2023-05-07T10:00:19;13.00;99.90
6956;DHT22;50345;51.136;16.886;2023-05-07T10:02:51;13.00;99.90
6956;DHT22;50345;51.136;16.886;2023-05-07T10:05:21;13.10;99.90
6956;DHT22;50345;51.136;16.886;2023-05-07T10:07:47;13.30;99.90
6956;DHT22;50345;51.136;16.886;2023-05-07T10:10:14;14.00;99.90
6956;DHT22;50345;51.136;16.886;2023-05-07T10:12:41;14.30;99.90
6956;DHT22;50345;51.136;16.886;2023-05-07T10:15:08;14.40;99.90
6956;DHT22;50345;51.136;16.886;2023-05-07T10:17:38;14.70;99.90
6956;DHT22;50345;51.136;16.886;2023-05-07T10:20:05;14.70;99.90
6956;DHT22;50345;51.136;16.886;2023-05-07T10:22:46;14.80;99.90
6956;DHT22;50345;51.136;16.886;2023-05-07T10:25:23;15.00;99.90
6956;DHT22;50345;51.136;16.886;2023-05-07T10:27:51;15.20;99.90
6956;DHT22;50345;51.136;16.886;2023-05-07T10:33:15;15.30;99.90
6956;DHT22;50345;51.136;16.886;2023-05-07T10:35:44;15.00;99.90
6956;DHT22;50345;51.136;16.886;2023-05-07T10:38:10;14.70;99.90
6956;DHT22;50345;51.136;16.886;2023-05-07T10:40:36;14.50;99.90
6956;DHT22;50345;51.136;16.886;2023-05-07T10:43:03;14.20;99.90
6956;DHT22;50345;51.136;16.886;2023-05-07T10:45:32;14.00;99.90
6956;DHT22;50345;51.136;16.886;2023-05-07T10:48:15;13.90;99.90
6956;DHT22;50345;51.136;16.886;2023-05-07T10:50:42;14.00;99.90
6956;DHT22;50345;51.136;16.886;2023-05-07T10:55:43;14.30;99.90
6956;DHT22;50345;51.136;16.886;2023-05-07T10:58:22;14.40;99.90
6956;DHT22;50345;51.136;16.886;2023-05-07T11:00:55;14.50;99.90
6956;DHT22;50345;51.136;16.886;2023-05-07T11:03:20;14.50;99.90
6956;DHT22;50345;51.136;16.886;2023-05-07T11:05:47;14.40;99.90
6956;DHT22;50345;51.136;16.886;2023-05-07T11:11:17;14.40;99.90
6956;DHT22;50345;51.136;16.886;2023-05-07T11:13:44;14.30;99.90
6956;DHT22;50345;51.136;16.886;2023-05-07T11:18:51;14.10;99.90
6956;DHT22;50345;51.136;16.886;2023-05-07T11:21:39;14.10;99.90
6956;DHT22;50345;51.136;16.886;2023-05-07T11:24:09;14.10;99.90
6956;DHT22;50345;51.136;16.886;2023-05-07T11:26:49;14.10;99.90
6956;DHT22;50345;51.136;16.886;2023-05-07T11:29:22;14.10;99.90
6956;DHT22;50345;51.136;16.886;2023-05-07T11:31:52;14.10;99.90
6956;DHT22;50345;51.136;16.886;2023-05-07T11:34:26;14.20;99.90
6956;DHT22;50345;51.136;16.886;2023-05-07T11:36:52;14.20;99.90
6956;DHT22;50345;51.136;16.886;2023-05-07T11:39:44;14.20;99.90
6956;DHT22;50345;51.136;16.886;2023-05-07T11:42:29;14.10;99.90
6956;DHT22;50345;51.136;16.886;2023-05-07T11:44:56;14.00;99.90
6956;DHT22;50345;51.136;16.886;2023-05-07T11:47:21;14.10;99.90
6956;DHT22;50345;51.136;16.886;2023-05-07T11:49:54;14.20;99.90
6956;DHT22;50345;51.136;16.886;2023-05-07T11:52:21;14.20;99.90
6956;DHT22;50345;51.136;16.886;2023-05-07T11:54:51;14.10;99.90
6956;DHT22;50345;51.136;16.886;2023-05-07T11:57:17;14.10;99.90
6956;DHT22;50345;51.136;16.886;2023-05-07T11:59:43;14.00;99.90
6956;DHT22;50345;51.136;16.886;2023-05-07T12:02:15;14.10;99.90
6956;DHT22;50345;51.136;16.886;2023-05-07T12:04:41;14.10;99.90
6956;DHT22;50345;51.136;16.886;2023-05-07T12:07:16;14.20;99.90
6956;DHT22;50345;51.136;16.886;2023-05-07T12:09:44;14.50;99.90
6956;DHT22;50345;51.136;16.886;2023-05-07T12:12:10;14.70;99.90
6956;DHT22;50345;51.136;16.886;2023-05-07T12:14:40;14.70;99.90
6956;DHT22;50345;51.136;16.886;2023-05-07T12:17:07;14.70;99.60
6956;DHT22;50345;51.136;16.886;2023-05-07T12:19:34;14.60;99.80
6956;DHT22;50345;51.136;16.886;2023-05-07T12:22:01;14.40;99.70
6956;DHT22;50345;51.136;16.886;2023-05-07T12:24:26;14.30;99.90
6956;DHT22;50345;51.136;16.886;2023-05-07T12:26:52;14.30;99.90
6956;DHT22;50345;51.136;16.886;2023-05-07T12:29:21;14.40;99.50
6956;DHT22;50345;51.136;16.886;2023-05-07T12:31:48;14.60;99.30
6956;DHT22;50345;51.136;16.886;2023-05-07T12:34:15;14.80;98.00
6956;DHT22;50345;51.136;16.886;2023-05-07T12:36:40;14.90;96.10
6956;DHT22;50345;51.136;16.886;2023-05-07T12:39:07;15.00;95.90
6956;DHT22;50345;51.136;16.886;2023-05-07T12:41:58;15.00;96.10
6956;DHT22;50345;51.136;16.886;2023-05-07T12:44:25;15.00;96.30
6956;DHT22;50345;51.136;16.886;2023-05-07T12:46:51;14.90;97.60
6956;DHT22;50345;51.136;16.886;2023-05-07T12:49:17;14.80;97.40
6956;DHT22;50345;51.136;16.886;2023-05-07T12:51:49;14.90;97.90
6956;DHT22;50345;51.136;16.886;2023-05-07T12:54:31;14.90;97.30
6956;DHT22;50345;51.136;16.886;2023-05-07T12:57:07;14.90;96.90
6956;DHT22;50345;51.136;16.886;2023-05-07T12:59:40;14.80;96.30
6956;DHT22;50345;51.136;16.886;2023-05-07T13:02:07;14.70;95.80
6956;DHT22;50345;51.136;16.886;2023-05-07T13:04:33;14.60;96.10
6956;DHT22;50345;51.136;16.886;2023-05-07T13:06:59;14.30;95.80
6956;DHT22;50345;51.136;16.886;2023-05-07T13:09:25;14.20;97.00
6956;DHT22;50345;51.136;16.886;2023-05-07T13:11:51;14.20;98.10
6956;DHT22;50345;51.136;16.886;2023-05-07T13:14:16;14.20;97.60
6956;DHT22;50345;51.136;16.886;2023-05-07T13:16:42;14.20;98.00
6956;DHT22;50345;51.136;16.886;2023-05-07T13:19:08;14.30;98.80
6956;DHT22;50345;51.136;16.886;2023-05-07T13:21:33;14.50;98.20
6956;DHT22;50345;51.136;16.886;2023-05-07T13:23:59;14.60;97.10
6956;DHT22;50345;51.136;16.886;2023-05-07T13:26:25;14.60;96.30
6956;DHT22;50345;51.136;16.886;2023-05-07T13:28:52;14.70;97.20
6956;DHT22;50345;51.136;16.886;2023-05-07T13:31:17;14.70;95.70
6956;DHT22;50345;51.136;16.886;2023-05-07T13:33:43;14.60;97.00
6956;DHT22;50345;51.136;16.886;2023-05-07T13:36:09;14.50;96.20
6956;DHT22;50345;51.136;16.886;2023-05-07T13:38:34;14.60;97.70
6956;DHT22;50345;51.136;16.886;2023-05-07T13:41:00;14.70;97.60
6956;DHT22;50345;51.136;16.886;2023-05-07T13:43:26;14.70;97.30
6956;DHT22;50345;51.136;16.886;2023-05-07T13:45:51;14.70;95.20
6956;DHT22;50345;51.136;16.886;2023-05-07T13:48:17;14.40;94.60
6956;DHT22;50345;51.136;16.886;2023-05-07T13:50:42;14.30;95.40
6956;DHT22;50345;51.136;16.886;2023-05-07T13:53:08;14.10;96.50
6956;DHT22;50345;51.136;16.886;2023-05-07T13:55:34;13.90;97.90
6956;DHT22;50345;51.136;16.886;2023-05-07T13:58:01;13.80;98.70
6956;DHT22;50345;51.136;16.886;2023-05-07T14:00:28;13.70;99.30
6956;DHT22;50345;51.136;16.886;2023-05-07T14:02:55;13.60;99.70
6956;DHT22;50345;51.136;16.886;2023-05-07T14:05:21;13.70;99.80
6956;DHT22;50345;51.136;16.886;2023-05-07T14:07:49;13.80;99.90
6956;DHT22;50345;51.136;16.886;2023-05-07T14:10:17;13.80;98.50
6956;DHT22;50345;51.136;16.886;2023-05-07T14:12:44;13.80;98.80
6956;DHT22;50345;51.136;16.886;2023-05-07T14:15:10;13.70;98.80
6956;DHT22;50345;51.136;16.886;2023-05-07T14:17:35;13.60;98.80
6956;DHT22;50345;51.136;16.886;2023-05-07T14:20:01;13.50;99.80
6956;DHT22;50345;51.136;16.886;2023-05-07T14:22:27;13.40;99.50
6956;DHT22;50345;51.136;16.886;2023-05-07T14:24:52;13.30;99.80
6956;DHT22;50345;51.136;16.886;2023-05-07T14:27:18;13.40;99.60
6956;DHT22;50345;51.136;16.886;2023-05-07T14:29:44;13.30;98.90
6956;DHT22;50345;51.136;16.886;2023-05-07T14:32:10;13.30;99.10
6956;DHT22;50345;51.136;16.886;2023-05-07T14:34:36;13.30;99.80
6956;DHT22;50345;51.136;16.886;2023-05-07T14:37:02;13.30;99.90
6956;DHT22;50345;51.136;16.886;2023-05-07T14:39:27;13.30;99.90
6956;DHT22;50345;51.136;16.886;2023-05-07T14:41:53;13.20;99.90
6956;DHT22;50345;51.136;16.886;2023-05-07T14:44:20;13.10;99.90
6956;DHT22;50345;51.136;16.886;2023-05-07T14:46:46;13.00;99.90
6956;DHT22;50345;51.136;16.886;2023-05-07T14:49:11;13.00;99.90
6956;DHT22;50345;51.136;16.886;2023-05-07T14:51:45;12.90;99.90
6956;DHT22;50345;51.136;16.886;2023-05-07T14:54:15;12.80;99.90
6956;DHT22;50345;51.136;16.886;2023-05-07T14:56:41;12.80;99.90
6956;DHT22;50345;51.136;16.886;2023-05-07T14:59:08;12.80;99.90
6956;DHT22;50345;51.136;16.886;2023-05-07T15:01:37;12.80;99.90
6956;DHT22;50345;51.136;16.886;2023-05-07T15:04:05;13.00;99.90
6956;DHT22;50345;51.136;16.886;2023-05-07T15:06:32;13.00;99.90
6956;DHT22;50345;51.136;16.886;2023-05-07T15:08:57;13.10;99.90
6956;DHT22;50345;51.136;16.886;2023-05-07T15:11:23;13.20;99.90
6956;DHT22;50345;51.136;16.886;2023-05-07T15:13:49;13.10;99.90
6956;DHT22;50345;51.136;16.886;2023-05-07T15:16:15;13.10;99.90
6956;DHT22;50345;51.136;16.886;2023-05-07T15:18:40;13.10;99.90
6956;DHT22;50345;51.136;16.886;2023-05-07T15:21:06;13.00;99.90
6956;DHT22;50345;51.136;16.886;2023-05-07T15:23:32;13.00;99.90
6956;DHT22;50345;51.136;16.886;2023-05-07T15:25:57;13.00;99.90
6956;DHT22;50345;51.136;16.886;2023-05-07T15:28:23;13.00;99.90
6956;DHT22;50345;51.136;16.886;2023-05-07T15:30:50;12.90;99.90
6956;DHT22;50345;51.136;16.886;2023-05-07T15:33:16;12.90;99.90
6956;DHT22;50345;51.136;16.886;2023-05-07T15:35:41;12.90;99.90
6956;DHT22;50345;51.136;16.886;2023-05-07T15:38:07;12.90;99.90
6956;DHT22;50345;51.136;16.886;2023-05-07T15:40:33;12.90;99.90